Weather observations for the past three days for
New Stuyahok
Metric (Imperial)
Date Time (akdt) Wind (kph) Vis. (km) Weather Sky Cond. Temperature (ºC) Relative Humidity Wind Chill (°C) Heat Index (°C) Pressure Precipitation (cm)
Air Dwpt 6 hour altimeter (cm) sea level (mb) 1 hr 3 hr 6 hr
Max. Min.
10 05:56 S 17 16.09 Mostly Cloudy BKN007 BKN050 -2.2 -3.3 92% -7 74.8 997.7
10 04:56 S 15 16.09 Mostly Cloudy BKN055 BKN110 -2.2 -3.3 92% -7 74.78 997.6
10 03:56 SW 19 16.09 Overcast OVC070 -1.1 -2.8 6.7 -1.1 88% -6 74.73 997.0
10 02:56 SW 13 16.09 Overcast OVC070 0 -2.2 85% -4 74.68 996.2
10 01:56 Vrbl 6 16.09 Mostly Cloudy FEW040 BKN110 3.3 -3.9 60% 74.63 995.6
10 00:56 NW 9 16.09 Mostly Cloudy FEW070 BKN110 2.2 -3.9 64% -0 74.63 995.4
09 23:56 W 13 16.09 Overcast OVC080 3.9 -3.3 60% 1 74.6 995.2
09 22:56 W 13 16.09 Overcast BKN080 OVC100 5 -3.9 53% 2 74.6 995.1
09 21:56 W 13 16.09 Overcast OVC070 6.7 -4.4 10 6.7 45% 4 74.55 994.4
09 20:56 W 13 16.09 Overcast OVC080 7.8 -7.2 34% 6 74.52 994.0
09 19:56 NW 7 16.09 Overcast SCT070 BKN085 OVC100 8.3 -6.7 34% 7 74.52 994.2
09 18:56 NW 15 16.09 Mostly Cloudy BKN100 8.3 -6.7 34% 6 74.52 994.2
09 16:56 NW 15 16.09 Mostly Cloudy BKN075 8.3 -7.8 31% 6 74.57 994.7
09 15:56 N 15 16.09 Mostly Cloudy BKN070 BKN085 9.4 -6.7 10 4.4 32% 7 74.57 995.0
09 14:56 N 17 16.09 Mostly Cloudy BKN070 8.9 -6.7 33% 7 74.6 995.3
09 13:56 N 11 16.09 Partly Cloudy SCT065 7.8 -7.2 34% 6 74.63 995.5
09 12:56 N 13 16.09 Fair CLR 8.3 -4.4 41% 6 74.65 995.7
09 11:56 N 15 G 28 16.09 Fair CLR 7.2 -3.9 46% 5 74.68 996.1
09 10:56 N 17 16.09 Fair CLR 6.1 -2.8 53% 3 74.7 996.6
09 09:56 N 17 16.09 Fair CLR 5 -3.3 5 -1.1 55% 2 74.73 996.7
09 08:56 N 17 16.09 Fair CLR 3.3 -3.3 62% -0 74.75 997.1
09 07:56 N 11 16.09 Fair CLR 1.1 -3.9 70% -2 74.75 997.3
09 06:56 N 17 16.09 Partly Cloudy SCT055 0 -3.9 75% -4 74.78 997.4
09 05:56 N 19 16.09 Fair CLR -0.6 -3.3 82% -5 74.8 997.8
09 04:56 N 15 16.09 Fair CLR -1.1 -3.3 85% -5 74.83 998.4
09 03:56 N 15 16.09 Fair CLR -0.6 -2.8 3.3 -0.6 85% -5 74.88 999.0
09 02:56 N 13 16.09 Fair CLR 0 -2.8 82% -4 74.93 999.7
09 01:56 N 15 16.09 A Few Clouds FEW060 0 -3.3 79% -4 74.96 1000.1
09 00:56 N 13 16.09 A Few Clouds FEW050 1.1 -3.3 73% -2 75.01 1000.8
08 23:56 N 9 16.09 Mostly Cloudy BKN046 BKN055 1.7 -0.6 85% -1 75.08 1001.5
08 22:56 NW 9 16.09 Mostly Cloudy BKN055 2.8 -0.6 79% 1 75.11 1001.8
08 21:56 NE 11 16.09 Overcast SCT043 OVC050 3.3 0 6.1 3.3 79% 1 75.11 1002.1
08 20:56 N 24 G 37 16.09 Overcast FEW028 BKN036 OVC050 5 -0.6 67% 1 75.16 1002.6
08 19:56 NE 11 16.09 Light Rain FEW026 BKN041 OVC060 4.4 -0.6 70% 2 75.16 1002.8
08 18:56 N 11 16.09 Mostly Cloudy BKN041 4.4 0.6 77% 2 75.21 1003.6
08 17:56 N 13 16.09 Light Rain FEW017 BKN023 OVC031 3.9 0 76% 1 75.29 1004.5
08 16:56 N 26 G 37 16.09 Mostly Cloudy SCT026 SCT036 BKN050 5 -0.6 67% 1 75.31 1004.7
08 15:56 N 17 16.09 A Few Clouds FEW022 5.6 -2.8 6.1 2.2 55% 3 75.36 1005.3
08 14:56 N 20 G 30 16.09 Mostly Cloudy BKN016 BKN070 4.4 0 73% 1 75.41 1005.9
08 13:56 N 22 G 31 16.09 Light Rain SCT014 BKN034 OVC041 3.3 0.6 83% -1 75.44 1006.5
08 12:56 N 19 16.09 Light Rain OVC016 2.8 0 82% -1 75.49 1007.0
08 11:56 N 20 16.09 Overcast BKN011 OVC021 3.9 0.6 79% 0 75.51 1007.3
08 10:56 N 20 16.09 Overcast FEW009 BKN021 OVC070 3.9 0.6 79% 0 75.54 1007.5
08 09:56 N 11 16.09 Overcast OVC007 2.2 0.6 2.2 -2.8 89% -1 75.57 1008.1
08 08:56 N 9 16.09 Mostly Cloudy BKN060 0 -0.6 96% -3 75.59 1008.4
08 07:56 N 11 16.09 Fair CLR -1.1 -1.7 96% -5 75.62 1008.8
08 06:56 N 9 16.09 Fair CLR -2.8 -2.8 100% -6 75.64 1009.2
08 05:56 N 9 16.09 Fair CLR -2.8 -2.8 100% -6 75.69 1009.8
08 04:56 N 11 16.09 Fair CLR -2.8 -2.8 100% -7 75.72 1010.1
08 03:56 N 7 16.09 Fair CLR -2.2 -2.8 7.8 -2.2 96% -5 75.74 1010.6
08 02:56 Calm 16.09 Fair CLR -1.7 -2.2 96% 75.79 1011.1
08 01:56 E 9 16.09 Fair CLR 0 -1.1 92% -3 75.79 1011.3
08 00:56 E 11 16.09 A Few Clouds FEW085 1.1 -1.1 85% -2 75.84 1011.7
07 23:56 E 13 16.09 Fair CLR 2.2 -2.2 73% -1 75.84 1012.0
07 22:56 SW 9 16.09 Partly Cloudy SCT085 3.9 -4.4 55% 2 75.87 1012.1
07 21:56 Calm 16.09 Overcast OVC060 7.8 -7.2 8.9 6.7 34% 75.87 1012.1
07 20:56 Calm 12.87 Overcast OVC060 7.8 -3.9 44% 75.9 1012.4
07 19:56 Vrbl 7 16.09 A Few Clouds FEW090 7.8 -3.9 44% 7 75.92 1012.8
07 18:56 Calm 16.09 Overcast OVC090 8.3 -3.9 42% 75.95 1013.3
07 17:56 Vrbl 7 16.09 Mostly Cloudy BKN090 7.8 -4.4 42% 7 76 1013.8
07 16:56 E 15 16.09 Overcast OVC090 7.2 -5 42% 5 76.05 1014.5
07 15:56 Calm 16.09 Overcast OVC085 6.7 -8.9 7.2 -0.6 32% 76.1 1015.2
07 14:56 Calm 16.09 Overcast OVC090 5.6 -6.1 43% 76.15 1015.8
07 13:56 SE 11 16.09 Overcast OVC090 5 -5 49% 3 76.17 1016.4
07 12:56 Vrbl 9 16.09 Overcast OVC085 3.3 -3.9 60% 1 76.2 1016.8
07 11:56 E 7 16.09 Mostly Cloudy BKN085 2.2 -3.3 67% 0 76.25 1017.2
07 10:56 Vrbl 6 16.09 Overcast SCT009 OVC085 1.7 -2.8 72% 76.28 1017.5
07 09:56 Vrbl 6 16.09 Overcast OVC007 -0.6 -2.2 -0.6 -2.2 89% 76.28 1017.6
07 08:56 S 9 16.09 Overcast OVC005 -1.1 -1.7 96% -4 76.28 1017.7
07 07:56 S 7 16.09 Overcast OVC003 -1.7 -1.7 100% -4 76.28 1017.7
07 06:56 Calm 14.48 Overcast OVC003 -1.7 -2.2 96% 76.28 1017.8
Date Time (akdt) Wind (kph) Vis. (km) Weather Sky Cond. Air Dwpt Max. Min. Relative Humidity Wind Chill (°C) Heat Index (°C) altimeter (cm) sea level (mb) 1 hr 3 hr 6 hr
6 hour
Temperature (ºC) Pressure Precipitation (cm)